CheckWX is a tool to help pilots better visualize weather data.  It is not intended as a substitute for an official pre-flight weather briefing.

15:28:51 UTC

KGHW METAR
Glenwood Municipal Airport
Glenwood, Minnesota, USA
Current

14 mins ago

KGHW 261515Z AUTO 00000KT 10SM CLR 16/08 A3013 RMK AO2
Observed
May-26 @ 15:15 UTC
Visibility
10 SM
Flight Rules
VFR
Cloud Levels
  • Clear skies
Temperature
16°C / 61°F
Dewpoint
C / 46°F
Humidity
59%
Altimeter
30.13" Hg
Pressure
1020.32 hPa
Previous

33 mins ago

KGHW 261456Z AUTO 10003KT 10SM CLR 15/08 A3012 RMK AO2
Observed
May-26 @ 14:56 UTC
Wind
  • 100° at 3 KTS
Visibility
10 SM
Flight Rules
VFR
Cloud Levels
  • Clear skies
Temperature
15°C / 59°F
Dewpoint
C / 46°F
Humidity
63%
Altimeter
30.12" Hg
Pressure
1020.02 hPa
Previous

53 mins ago

KGHW 261436Z AUTO 00000KT 10SM CLR 14/08 A3012 RMK AO2
Observed
May-26 @ 14:36 UTC
Visibility
10 SM
Flight Rules
VFR
Cloud Levels
  • Clear skies
Temperature
14°C / 57°F
Dewpoint
C / 46°F
Humidity
67%
Altimeter
30.12" Hg
Pressure
1020.02 hPa